Accueil
METAR-TAF:

METAR-TAF

Aéroports :

Aéroport de Malaga-Costa del Sol

Málaga, Espagne

latitude: 36-40N, longitude: 004-29W, altitude: 16 m

Observation

Le bulletin a été fait il y a 30 minutes, à 22:30 UTC
Vent 5 kt de ouest
Température 16°C
Humidité 68%
Pression 1025 hPa
Visibilité 10 km ou plus
pas de nuages en-dessous de 1500 mètres et pas de cumulonimbus.

METAR: LEMG 302230Z 28005KT CAVOK 16/10 Q1025 NOSIG

Heure: 00:00 (23:00 UTC)

Prévision

Le bulletin a été fait il y a 6 heures et 0 minutes, à 17:00 UTC
Prévision valable du 30 à 18 UTC au 31 à 18 UTC
Vent 6 kt de sud-est
Visibilité 10 km ou plus
pas de nuages en-dessous de 1500 mètres et pas de cumulonimbus.
Evoluant progressivement
du 30 à 18 UTC au 30 à 21 UTC
Vent 6 kt de ouest/nord-ouest
Evoluant progressivement
du 31 à 10 UTC au 31 à 12 UTC
Vent 8 kt de sud/sud-est

TAF: LEMG 301700Z 3018/3118 14006KT CAVOK TX23/3112Z TN11/3106Z BECMG 3018/3021 29006KT BECMG 3110/3112 15008KT

Observations et prévisions météorologiques de plus de 4000 aéroports (messages METAR et TAF).

Les stations disponibles sont représentées par des disques jaunes et rouges sur la carte.

Passer la souris dessus pour voir le nom de la station.

Cliquer dessus pour voir les observations et prévisions météorologiques.

Pour changer de carte: cliquez sur les boutons verts avec une croix noire pour zoomer, sur le bouton vert avec un tiret pour effectuer un zoom arrière, ou sur les flèches vertes pour les cartes adjacentes.


METAR-TAF: